Time;durP1;ratioP1;P1;durP2;ratioP2;P2;SDS_P1;SDS_P2;PMS_P1;PMS_P2;Temp;Humidity;BMP_temperature;BMP_pressure;BME280_temperature;BME280_humidity;BME280_pressure;Samples;Min_cycle;Max_cycle;Signal;HPM_P1;HPM_P2
2021/08/12 00:02:44;;;;;;;6.83;6.13;;;;;;;15.50;73.52;99195.85;262708;1090;24336;-75
2021/08/12 00:07:47;;;;;;;7.20;5.30;;;;;;;15.42;73.34;99193.09;262717;1090;23085;-75
2021/08/12 00:12:52;;;;;;;6.67;4.70;;;;;;;15.33;73.39;99195.75;262877;1089;24336;-75
2021/08/12 00:17:57;;;;;;;7.57;4.93;;;;;;;15.27;73.78;99197.00;262685;1090;22757;-74
2021/08/12 00:23:03;;;;;;;6.07;4.50;;;;;;;15.20;73.67;99203.61;262455;1089;24303;-75
2021/08/12 00:28:10;;;;;;;5.90;4.93;;;;;;;15.13;74.14;99214.05;262723;1090;22841;-75
2021/08/12 00:33:13;;;;;;;5.57;4.90;;;;;;;15.08;74.38;99213.38;262737;1090;22885;-76
2021/08/12 00:38:22;;;;;;;5.60;4.55;;;;;;;15.08;74.46;99219.56;262670;1090;22847;-75
2021/08/12 00:43:26;;;;;;;4.70;4.10;;;;;;;15.14;74.68;99221.05;262873;1089;22844;-76
2021/08/12 00:48:31;;;;;;;6.15;4.80;;;;;;;15.18;74.88;99227.42;262899;1089;22790;-75
2021/08/12 00:53:50;;;;;;;6.50;5.30;;;;;;;15.20;74.79;99221.72;262661;1090;26021;-75
2021/08/12 00:58:55;;;;;;;5.80;4.50;;;;;;;15.11;74.79;99224.37;262718;1089;22844;-75
2021/08/12 01:03:59;;;;;;;7.35;4.75;;;;;;;15.01;74.98;99211.92;262692;1090;22962;-75
2021/08/12 01:09:09;;;;;;;5.70;4.60;;;;;;;14.99;75.29;99210.63;262733;1088;22782;-75
2021/08/12 01:14:36;;;;;;;5.50;5.00;;;;;;;14.94;75.28;99216.95;262836;1090;22806;-75
2021/08/12 01:20:37;;;;;;;5.03;4.40;;;;;;;14.85;75.31;99216.08;262906;1090;22841;-75
2021/08/12 01:25:51;;;;;;;8.57;4.07;;;;;;;14.71;75.41;99219.61;262733;1090;22972;-75
2021/08/12 01:31:27;;;;;;;5.90;4.50;;;;;;;14.60;75.52;99222.83;262961;1090;24351;-76
2021/08/12 01:36:31;;;;;;;5.45;4.95;;;;;;;14.49;75.72;99225.76;262660;1089;27071;-76
2021/08/12 01:41:41;;;;;;;6.27;4.33;;;;;;;14.40;75.88;99221.39;262976;1089;22860;-76
2021/08/12 01:46:58;;;;;;;5.63;4.50;;;;;;;14.39;76.37;99223.27;262843;1090;22876;-75
2021/08/12 01:52:04;;;;;;;7.55;4.90;;;;;;;14.38;76.38;99224.36;262683;1090;24508;-75
2021/08/12 01:57:09;;;;;;;8.45;5.60;;;;;;;14.32;76.47;99231.75;262316;1090;22744;-75
2021/08/12 02:02:14;;;;;;;6.70;5.80;;;;;;;14.26;76.64;99230.28;262812;1088;26341;-75
2021/08/12 02:07:18;;;;;;;7.43;4.90;;;;;;;14.27;76.89;99233.76;262714;1090;22770;-75
2021/08/12 02:12:21;;;;;;;5.65;4.70;;;;;;;14.22;76.73;99239.27;262656;1090;22768;-75
2021/08/12 02:17:38;;;;;;;7.20;5.50;;;;;;;14.13;76.82;99239.97;262554;1090;24367;-75
2021/08/12 02:23:04;;;;;;;8.10;5.75;;;;;;;14.11;77.15;99235.98;262644;1089;22748;-75
2021/08/12 02:28:10;;;;;;;7.40;5.95;;;;;;;14.15;77.40;99228.89;262729;1089;22785;-75
2021/08/12 02:33:17;;;;;;;8.03;5.80;;;;;;;14.18;77.53;99229.08;262414;1090;22783;-75
2021/08/12 02:38:25;;;;;;;5.40;4.75;;;;;;;14.21;77.34;99227.68;262849;1090;22803;-75
2021/08/12 02:43:29;;;;;;;6.90;5.50;;;;;;;14.08;77.10;99234.68;262955;1089;26270;-75
2021/08/12 02:48:40;;;;;;;5.60;5.00;;;;;;;13.99;77.27;99237.28;263055;1090;22793;-75
2021/08/12 02:53:49;;;;;;;8.95;5.25;;;;;;;13.95;77.57;99238.16;262846;1090;22790;-75
2021/08/12 02:59:01;;;;;;;5.70;4.60;;;;;;;13.92;77.64;99238.77;262388;1090;22781;-75
2021/08/12 03:04:05;;;;;;;8.70;5.00;;;;;;;13.86;77.71;99240.76;262926;1089;25620;-76
2021/08/12 03:09:10;;;;;;;6.60;5.70;;;;;;;13.86;78.04;99238.06;262755;1090;22811;-76
2021/08/12 03:14:16;;;;;;;6.90;5.95;;;;;;;13.82;78.05;99254.04;262492;1090;25877;-75
2021/08/12 03:19:19;;;;;;;8.37;5.43;;;;;;;13.73;78.04;99249.64;262718;1088;22767;-76
2021/08/12 03:24:24;;;;;;;9.10;5.90;;;;;;;13.68;78.25;99256.71;262988;1089;25906;-75
2021/08/12 03:29:29;;;;;;;7.00;6.20;;;;;;;13.77;78.95;99256.81;262736;1089;24457;-76
2021/08/12 03:34:39;;;;;;;8.15;6.40;;;;;;;13.85;79.23;99256.13;262683;1090;22789;-75
2021/08/12 03:39:43;;;;;;;7.07;5.87;;;;;;;13.92;78.89;99263.00;262787;1089;22799;-75
2021/08/12 03:44:47;;;;;;;9.50;5.50;;;;;;;13.87;78.60;99258.52;262651;1089;22860;-75
2021/08/12 03:49:56;;;;;;;8.80;6.60;;;;;;;13.94;78.93;99250.05;262716;1088;25989;-75
2021/08/12 03:55:00;;;;;;;9.70;7.40;;;;;;;14.02;79.17;99254.75;262841;1090;22868;-76
2021/08/12 04:00:05;;;;;;;7.13;6.43;;;;;;;14.13;79.03;99258.02;262667;1089;22814;-75
2021/08/12 04:05:16;;;;;;;7.97;6.17;;;;;;;14.24;79.16;99258.62;262722;1090;25902;-76
2021/08/12 04:10:20;;;;;;;8.70;6.35;;;;;;;14.24;78.26;99258.62;262688;1090;25996;-76
2021/08/12 04:15:26;;;;;;;8.30;7.10;;;;;;;14.13;77.80;99272.30;262844;1089;25214;-76
2021/08/12 04:20:33;;;;;;;12.30;8.40;;;;;;;14.09;78.07;99270.48;262624;1090;25877;-74
2021/08/12 04:25:40;;;;;;;8.75;7.50;;;;;;;14.19;78.46;99276.48;262690;1090;22847;-76
2021/08/12 04:30:45;;;;;;;10.35;9.10;;;;;;;14.37;78.72;99268.59;262718;1088;24373;-76
2021/08/12 04:35:49;;;;;;;8.60;7.23;;;;;;;14.52;78.29;99272.85;262678;1089;23049;-75
2021/08/12 04:40:57;;;;;;;9.90;8.00;;;;;;;14.62;78.21;99275.38;262783;1090;26289;-76
2021/08/12 04:46:14;;;;;;;9.00;7.25;;;;;;;14.86;78.52;99275.11;262648;1089;27201;-75
2021/08/12 04:51:17;;;;;;;10.33;8.50;;;;;;;15.02;78.05;99272.06;262778;1089;22935;-75
2021/08/12 04:56:40;;;;;;;9.35;8.25;;;;;;;15.14;77.78;99279.63;262812;1090;22868;-75
2021/08/12 05:01:44;;;;;;;10.33;8.60;;;;;;;15.25;77.52;99280.16;262832;1090;24170;-74
2021/08/12 05:06:48;;;;;;;9.10;8.20;;;;;;;15.36;77.28;99289.60;262727;1089;25894;-76
2021/08/12 05:11:53;;;;;;;12.67;10.77;;;;;;;15.48;77.30;99279.05;262795;1090;22865;-76
2021/08/12 05:16:57;;;;;;;13.80;10.40;;;;;;;15.61;77.31;99282.77;262374;1090;24282;-75
2021/08/12 05:22:04;;;;;;;11.30;8.30;;;;;;;15.72;77.21;99296.81;262368;1090;22790;-75
2021/08/12 05:27:25;;;;;;;9.20;8.23;;;;;;;15.78;76.99;99290.19;262765;1088;22763;-76
2021/08/12 05:32:30;;;;;;;11.25;9.65;;;;;;;15.90;76.91;99295.81;262818;1089;23915;-76
2021/08/12 05:37:33;;;;;;;11.13;9.67;;;;;;;16.05;76.80;99301.94;262749;1088;22848;-75
2021/08/12 05:42:37;;;;;;;10.10;8.27;;;;;;;16.22;76.25;99303.91;262941;1088;26363;-75
2021/08/12 05:47:41;;;;;;;11.90;9.40;;;;;;;16.41;76.34;99309.03;263259;1089;22772;-75
2021/08/12 05:52:45;;;;;;;11.20;9.20;;;;;;;16.59;75.67;99309.88;263526;1088;26003;-75
2021/08/12 05:57:48;;;;;;;14.05;11.00;;;;;;;16.85;76.28;99323.45;266142;1089;22769;-75
2021/08/12 06:02:53;;;;;;;10.30;8.93;;;;;;;17.05;75.15;99327.47;263679;1090;25337;-75
2021/08/12 06:08:07;;;;;;;9.77;8.77;;;;;;;17.23;74.90;99322.85;263771;1089;22849;-74
2021/08/12 06:13:10;;;;;;;10.50;9.25;;;;;;;17.38;74.25;99328.92;263660;1088;22877;-75
2021/08/12 06:18:16;;;;;;;11.10;9.65;;;;;;;17.58;74.39;99332.86;262723;1089;25992;-75
2021/08/12 06:23:20;;;;;;;11.37;9.73;;;;;;;17.81;73.98;99340.78;262747;1089;23977;-74
2021/08/12 06:28:23;;;;;;;12.20;9.75;;;;;;;18.01;73.18;99326.57;262720;1089;22847;-74
2021/08/12 06:33:27;;;;;;;13.35;9.70;;;;;;;18.23;73.40;99336.38;263063;1089;24332;-74
2021/08/12 06:38:31;;;;;;;12.30;10.00;;;;;;;18.42;72.86;99340.59;263230;1088;23696;-74
2021/08/12 06:43:34;;;;;;;11.40;8.90;;;;;;;18.61;72.34;99351.82;262872;1089;22777;-74
2021/08/12 06:48:37;;;;;;;10.70;8.75;;;;;;;18.75;71.31;99345.38;262925;1090;24501;-74
2021/08/12 06:54:01;;;;;;;8.20;7.35;;;;;;;18.89;70.61;99345.94;263119;1088;26344;-74
2021/08/12 06:59:13;;;;;;;11.33;7.13;;;;;;;19.05;69.83;99342.63;263588;1090;26252;-74
2021/08/12 07:04:21;;;;;;;9.75;5.90;;;;;;;19.22;69.21;99349.84;263184;1089;26379;-75
2021/08/12 07:09:26;;;;;;;5.95;4.75;;;;;;;19.36;67.95;99350.35;262899;1090;23808;-74
2021/08/12 07:14:36;;;;;;;7.13;5.80;;;;;;;19.50;67.87;99341.92;262925;1088;22773;-75
2021/08/12 07:19:41;;;;;;;6.67;4.70;;;;;;;19.69;67.10;99344.14;263031;1090;26216;-74
2021/08/12 07:24:44;;;;;;;5.87;5.30;;;;;;;19.94;66.84;99352.41;263050;1090;25887;-74
2021/08/12 07:29:49;;;;;;;6.77;5.00;;;;;;;20.15;66.25;99355.04;263165;1088;25896;-74
2021/08/12 07:34:53;;;;;;;4.83;4.40;;;;;;;20.38;65.78;99346.43;262981;1089;22965;-74
2021/08/12 07:39:58;;;;;;;6.03;4.90;;;;;;;20.58;64.74;99355.60;263017;1087;23414;-74
2021/08/12 07:45:02;;;;;;;6.80;4.50;;;;;;;20.76;64.77;99364.36;263341;1089;27482;-74
2021/08/12 07:50:18;;;;;;;5.07;4.47;;;;;;;20.91;63.23;99363.65;262924;1090;22863;-74
2021/08/12 07:55:43;;;;;;;4.83;3.67;;;;;;;21.05;62.39;99370.67;262834;1090;24201;-74
2021/08/12 08:00:47;;;;;;;5.30;3.50;;;;;;;21.24;62.05;99359.14;262913;1090;22780;-73
2021/08/12 08:05:51;;;;;;;4.07;2.93;;;;;;;21.44;61.26;99368.28;262906;1088;26229;-74
2021/08/12 08:10:55;;;;;;;4.35;2.75;;;;;;;21.58;59.90;99378.82;262894;1089;25989;-74
2021/08/12 08:16:00;;;;;;;5.17;2.83;;;;;;;21.71;58.97;99380.33;262980;1089;22815;-74
2021/08/12 08:21:04;;;;;;;4.40;2.83;;;;;;;21.84;58.12;99372.91;263107;1089;25457;-74
2021/08/12 08:26:08;;;;;;;4.25;2.50;;;;;;;22.12;57.73;99374.76;263036;1089;25996;-75
2021/08/12 08:31:18;;;;;;;3.73;3.00;;;;;;;22.36;56.34;99374.63;263459;1089;22940;-73
2021/08/12 08:36:22;;;;;;;3.20;2.90;;;;;;;22.58;55.00;99387.98;263018;1089;24458;-73
2021/08/12 08:41:26;;;;;;;3.47;2.70;;;;;;;22.74;54.33;99388.77;263296;1090;26031;-73
2021/08/12 08:46:30;;;;;;;3.18;2.88;;;;;;;22.60;53.17;99394.69;263162;1089;22810;-72
2021/08/12 08:51:35;;;;;;;3.73;2.75;;;;;;;22.71;53.29;99390.27;263244;1089;22814;-72
2021/08/12 08:56:40;;;;;;;2.78;2.58;;;;;;;23.02;52.88;99385.88;263149;1089;23616;-72
2021/08/12 09:01:43;;;;;;;3.10;2.80;;;;;;;23.36;52.17;99396.36;263291;1089;27706;-73
2021/08/12 09:06:48;;;;;;;3.20;2.90;;;;;;;23.64;51.64;99396.13;263392;1090;22802;-72
2021/08/12 09:11:51;;;;;;;3.78;2.98;;;;;;;23.79;50.92;99391.73;263275;1090;22834;-73
2021/08/12 09:16:56;;;;;;;3.40;3.10;;;;;;;23.94;50.04;99390.09;263549;1088;25857;-73
2021/08/12 09:22:00;;;;;;;3.30;3.00;;;;;;;23.85;49.74;99400.44;263718;1088;22775;-72
2021/08/12 09:27:19;;;;;;;4.93;3.90;;;;;;;23.95;49.84;99394.39;263030;1089;27105;-73
2021/08/12 09:32:23;;;;;;;3.38;3.18;;;;;;;24.08;49.08;99398.55;262740;1088;27386;-73
2021/08/12 09:37:31;;;;;;;3.85;3.53;;;;;;;23.92;48.69;99395.13;264223;1089;26002;-73
2021/08/12 09:42:54;;;;;;;;;;;;;;;23.53;48.19;99395.95;262876;1090;25992;-73
2021/08/12 09:48:12;;;;;;;3.53;3.23;;;;;;;23.37;48.79;99393.27;262993;1089;25694;-73
2021/08/12 09:53:20;;;;;;;2.93;2.73;;;;;;;23.50;48.46;99398.59;262951;1089;22826;-73
2021/08/12 09:58:34;;;;;;;4.20;2.67;;;;;;;23.69;48.08;99382.17;262958;1090;25926;-73
2021/08/12 10:03:37;;;;;;;2.80;2.55;;;;;;;24.00;47.80;99385.89;263113;1089;23692;-74
2021/08/12 10:08:41;;;;;;;3.20;2.90;;;;;;;24.03;47.19;99385.16;263115;1089;23334;-74
2021/08/12 10:13:46;;;;;;;3.20;2.90;;;;;;;23.87;46.89;99388.01;262923;1090;24332;-74
2021/08/12 10:18:53;;;;;;;3.15;2.85;;;;;;;23.85;46.31;99384.02;262993;1090;22781;-75
2021/08/12 10:24:01;;;;;;;3.08;2.78;;;;;;;24.05;46.68;99396.55;262895;1089;25878;-74
2021/08/12 10:29:08;;;;;;;3.20;2.90;;;;;;;24.32;46.44;99395.82;263502;1088;22789;-73
2021/08/12 10:34:12;;;;;;;3.15;2.85;;;;;;;24.60;45.93;99390.00;263282;1089;25877;-75
2021/08/12 10:39:18;;;;;;;3.30;3.00;;;;;;;24.93;46.23;99383.05;262669;1089;22807;-74
2021/08/12 10:44:22;;;;;;;3.07;2.70;;;;;;;25.30;45.01;99382.38;263141;1090;23924;-74
2021/08/12 10:49:25;;;;;;;3.33;3.03;;;;;;;25.47;44.71;99380.25;262825;1089;27256;-73
2021/08/12 10:54:31;;;;;;;3.30;3.00;;;;;;;25.48;43.26;99379.88;262992;1089;24339;-75
2021/08/12 10:59:35;;;;;;;2.80;2.50;;;;;;;25.25;43.11;99379.95;262949;1089;22762;-75
2021/08/12 11:04:59;;;;;;;3.00;2.80;;;;;;;25.01;42.61;99373.77;262998;1089;23390;-75
2021/08/12 11:10:14;;;;;;;3.55;3.00;;;;;;;24.75;43.19;99374.61;263229;1090;22770;-75
2021/08/12 11:15:37;;;;;;;2.90;2.70;;;;;;;24.82;43.64;99373.90;263082;1089;23487;-75
2021/08/12 11:20:52;;;;;;;3.40;3.10;;;;;;;25.09;43.24;99369.97;263041;1088;25877;-76
2021/08/12 11:26:12;;;;;;;3.58;3.28;;;;;;;25.32;42.98;99380.06;263090;1088;22781;-75
2021/08/12 11:31:18;;;;;;;3.48;3.18;;;;;;;25.21;42.88;99373.63;262562;1090;22815;-75
2021/08/12 11:36:25;;;;;;;4.15;3.30;;;;;;;24.79;42.27;99372.68;262989;1088;23379;-75
2021/08/12 11:41:43;;;;;;;3.48;3.18;;;;;;;24.48;42.47;99371.03;262900;1090;22946;-74
2021/08/12 11:46:46;;;;;;;7.38;3.35;;;;;;;24.21;43.29;99379.21;262865;1088;22946;-74
2021/08/12 11:51:59;;;;;;;3.70;3.23;;;;;;;24.02;43.48;99372.65;263023;1089;25875;-74
2021/08/12 11:57:02;;;;;;;3.37;3.07;;;;;;;24.22;44.12;99358.90;263131;1088;22758;-74
2021/08/12 12:02:06;;;;;;;3.50;2.78;;;;;;;24.43;43.21;99356.48;262984;1088;25983;-75
2021/08/12 12:07:11;;;;;;;3.13;2.93;;;;;;;24.50;42.78;99355.01;263732;1089;22796;-75
2021/08/12 12:12:31;;;;;;;3.83;3.10;;;;;;;24.77;43.39;99359.36;262982;1089;25880;-75
2021/08/12 12:17:55;;;;;;;3.70;3.03;;;;;;;25.18;43.10;99358.71;262905;1088;22856;-74
2021/08/12 12:23:03;;;;;;;3.33;3.03;;;;;;;25.40;42.29;99365.28;262978;1090;22784;-74
2021/08/12 12:28:07;;;;;;;3.80;3.18;;;;;;;25.50;42.51;99366.56;263032;1089;22918;-74
2021/08/12 12:33:14;;;;;;;3.60;3.18;;;;;;;25.68;41.77;99358.53;264124;1089;22876;-74
2021/08/12 12:38:26;;;;;;;6.13;3.48;;;;;;;25.86;42.37;99347.73;263399;1089;22959;-74
2021/08/12 12:43:29;;;;;;;3.80;3.50;;;;;;;25.96;40.92;99357.23;263180;1090;25874;-74
2021/08/12 12:48:35;;;;;;;4.15;3.20;;;;;;;25.99;40.94;99350.98;263477;1090;25989;-74
2021/08/12 12:53:52;;;;;;;3.80;3.50;;;;;;;26.11;40.43;99344.46;263048;1089;22765;-73
2021/08/12 12:59:10;;;;;;;4.58;3.28;;;;;;;26.17;40.61;99344.90;262823;1088;26645;-72
2021/08/12 13:04:21;;;;;;;3.63;3.33;;;;;;;26.06;39.00;99342.84;265837;1088;22717;-73
2021/08/12 13:09:37;;;;;;;3.53;3.23;;;;;;;25.94;39.41;99340.38;263279;1089;26436;-72
2021/08/12 13:14:41;;;;;;;3.43;2.73;;;;;;;25.79;40.08;99337.47;262975;1088;22816;-73
2021/08/12 13:19:44;;;;;;;3.30;3.10;;;;;;;25.83;40.03;99336.71;262884;1089;22953;-73
2021/08/12 13:24:48;;;;;;;3.78;3.48;;;;;;;26.08;40.04;99335.02;262918;1089;25894;-73
2021/08/12 13:30:03;;;;;;;3.43;2.85;;;;;;;26.42;39.79;99337.63;262944;1090;25894;-74
2021/08/12 13:35:08;;;;;;;3.05;2.85;;;;;;;26.69;39.08;99334.68;262940;1089;25903;-73
2021/08/12 13:40:12;;;;;;;3.58;3.08;;;;;;;26.75;38.46;99335.10;263098;1090;22770;-74
2021/08/12 13:45:29;;;;;;;3.30;2.98;;;;;;;26.86;38.61;99327.70;263302;1088;22791;-75
2021/08/12 13:50:43;;;;;;;4.80;3.03;;;;;;;26.94;38.07;99329.31;262939;1089;23337;-76
2021/08/12 13:55:47;;;;;;;3.50;2.78;;;;;;;27.06;37.93;99339.20;263151;1089;25596;-74
2021/08/12 14:00:51;;;;;;;3.45;3.03;;;;;;;27.26;37.41;99327.88;263421;1089;28857;-75
2021/08/12 14:06:08;;;;;;;3.00;2.80;;;;;;;27.32;36.97;99331.81;264210;1088;22994;-74
2021/08/12 14:11:29;;;;;;;3.48;3.15;;;;;;;27.35;36.64;99328.31;270044;1089;22511;-74
2021/08/12 14:16:34;;;;;;;3.15;2.85;;;;;;;27.26;36.45;99325.13;266858;1090;22817;-75
2021/08/12 14:21:39;;;;;;;4.08;3.10;;;;;;;27.30;37.26;99321.20;262789;1090;25854;-75
2021/08/12 14:26:42;;;;;;;4.70;2.93;;;;;;;27.20;37.10;99321.16;262804;1089;23382;-75
2021/08/12 14:31:46;;;;;;;3.23;2.98;;;;;;;27.09;36.87;99316.42;262715;1087;25877;-75
2021/08/12 14:36:49;;;;;;;3.43;2.90;;;;;;;26.99;37.54;99311.69;262982;1090;25877;-75
2021/08/12 14:41:53;;;;;;;3.43;3.00;;;;;;;26.98;37.54;99319.13;262737;1090;22771;-75
2021/08/12 14:46:56;;;;;;;3.88;3.25;;;;;;;26.96;37.72;99312.43;262706;1089;22766;-74
2021/08/12 14:52:14;;;;;;;4.28;3.03;;;;;;;26.92;37.61;99306.94;262928;1089;22887;-74
2021/08/12 14:57:37;;;;;;;5.00;3.35;;;;;;;26.85;37.29;99306.09;262736;1089;26155;-75
2021/08/12 15:02:41;;;;;;;3.30;3.00;;;;;;;26.67;37.45;99303.23;262858;1090;26111;-75
2021/08/12 15:07:44;;;;;;;7.75;3.10;;;;;;;26.47;37.35;99306.25;262745;1089;25874;-74
2021/08/12 15:12:47;;;;;;;2.78;2.40;;;;;;;26.29;37.41;99303.42;262719;1088;25954;-75
2021/08/12 15:17:58;;;;;;;3.10;2.90;;;;;;;26.25;38.01;99297.11;262801;1089;25865;-74
2021/08/12 15:23:13;;;;;;;2.73;2.53;;;;;;;26.03;37.58;99296.94;262660;1089;22760;-74
2021/08/12 15:28:17;;;;;;;2.98;2.75;;;;;;;25.87;38.63;99301.86;262777;1087;23010;-74
2021/08/12 15:33:20;;;;;;;3.00;2.65;;;;;;;25.83;38.51;99293.62;262807;1090;26289;-75
2021/08/12 15:38:25;;;;;;;3.33;3.03;;;;;;;25.73;38.39;99295.09;262744;1090;25999;-75
2021/08/12 15:43:29;;;;;;;4.13;3.05;;;;;;;25.73;39.37;99295.09;262681;1089;23340;-75
2021/08/12 15:48:32;;;;;;;4.13;3.75;;;;;;;25.64;38.60;99291.09;262842;1090;22780;-75
2021/08/12 15:53:36;;;;;;;3.55;3.25;;;;;;;25.54;39.19;99287.08;262703;1088;26095;-74
2021/08/12 15:58:40;;;;;;;3.38;3.08;;;;;;;25.45;38.77;99290.91;262723;1089;23440;-75
2021/08/12 16:03:43;;;;;;;3.38;3.08;;;;;;;25.37;39.37;99289.25;262725;1090;26153;-74
2021/08/12 16:08:46;;;;;;;3.40;3.10;;;;;;;25.40;39.60;99277.53;262715;1090;25990;-74
2021/08/12 16:13:49;;;;;;;2.90;2.70;;;;;;;25.42;39.64;99277.95;262356;1090;22827;-75
2021/08/12 16:18:57;;;;;;;3.15;2.90;;;;;;;25.38;39.32;99281.80;262791;1088;25986;-75
2021/08/12 16:24:01;;;;;;;4.47;3.00;;;;;;;25.31;39.26;99279.77;262757;1090;22907;-75
2021/08/12 16:29:04;;;;;;;3.38;2.95;;;;;;;25.16;39.37;99294.48;262687;1090;24322;-75
2021/08/12 16:34:15;;;;;;;4.00;3.08;;;;;;;25.03;39.47;99297.47;262703;1090;25880;-76
2021/08/12 16:39:18;;;;;;;3.98;2.68;;;;;;;24.92;39.09;99291.07;262854;1089;22999;-75
2021/08/12 16:44:22;;;;;;;4.60;2.90;;;;;;;24.83;39.60;99280.38;262735;1090;23935;-75
2021/08/12 16:49:26;;;;;;;6.73;3.23;;;;;;;24.75;39.52;99284.98;262931;1090;25896;-74
2021/08/12 16:54:30;;;;;;;3.25;2.95;;;;;;;24.64;39.56;99281.32;262433;1089;22882;-75
2021/08/12 16:59:35;;;;;;;3.23;2.70;;;;;;;24.53;39.51;99297.56;262800;1089;25980;-74
2021/08/12 17:04:38;;;;;;;2.60;2.40;;;;;;;24.39;39.60;99287.20;262823;1089;24467;-74
2021/08/12 17:09:41;;;;;;;4.68;2.40;;;;;;;24.25;40.00;99284.26;262930;1090;26012;-74
2021/08/12 17:14:44;;;;;;;5.30;2.40;;;;;;;24.07;40.81;99276.55;262702;1089;25906;-75
2021/08/12 17:19:47;;;;;;;3.17;2.40;;;;;;;23.85;40.90;99280.07;262379;1088;22773;-75
2021/08/12 17:24:50;;;;;;;4.50;2.43;;;;;;;23.56;41.56;99277.64;262853;1090;24492;-76
2021/08/12 17:29:53;;;;;;;4.90;2.45;;;;;;;23.30;42.27;99280.28;262866;1090;22996;-77
2021/08/12 17:34:56;;;;;;;6.57;2.50;;;;;;;23.05;42.68;99284.06;262739;1089;24345;-76
2021/08/12 17:40:13;;;;;;;5.87;2.90;;;;;;;22.79;43.14;99278.45;262991;1090;25894;-74
2021/08/12 17:45:37;;;;;;;10.18;3.68;;;;;;;22.49;43.46;99285.23;262428;1090;22756;-74
2021/08/12 17:50:40;;;;;;;15.28;4.33;;;;;;;22.24;44.12;99292.82;263033;1090;22916;-74
2021/08/12 17:55:44;;;;;;;12.67;4.23;;;;;;;21.98;44.57;99288.71;263135;1090;25877;-75
2021/08/12 18:00:48;;;;;;;8.10;3.60;;;;;;;21.76;44.90;99292.05;262847;1090;22770;-76
2021/08/12 18:05:51;;;;;;;7.87;2.53;;;;;;;21.51;45.08;99281.26;262849;1089;25881;-75
2021/08/12 18:10:54;;;;;;;3.33;2.30;;;;;;;21.28;45.71;99290.00;262788;1090;25906;-74
2021/08/12 18:16:00;;;;;;;4.53;2.30;;;;;;;21.03;45.54;99284.64;262749;1090;22822;-75
2021/08/12 18:21:06;;;;;;;3.55;2.70;;;;;;;20.82;46.12;99289.49;262716;1090;22913;-74
2021/08/12 18:26:10;;;;;;;2.93;2.30;;;;;;;20.60;46.42;99305.14;262913;1090;24345;-75
2021/08/12 18:31:16;;;;;;;3.40;2.60;;;;;;;20.38;46.75;99308.34;263058;1088;22798;-75
2021/08/12 18:36:20;;;;;;;4.60;2.70;;;;;;;20.18;47.18;99305.40;262793;1088;24310;-75
2021/08/12 18:41:23;;;;;;;3.35;2.70;;;;;;;20.01;47.64;99311.84;262755;1088;24520;-74
2021/08/12 18:46:26;;;;;;;4.05;2.80;;;;;;;19.85;48.13;99313.63;262673;1088;26110;-75
2021/08/12 18:51:32;;;;;;;4.73;3.13;;;;;;;19.71;48.75;99308.47;262795;1089;23318;-75
2021/08/12 18:56:37;;;;;;;6.67;3.93;;;;;;;19.54;49.58;99312.95;262767;1089;22908;-74
2021/08/12 19:01:40;;;;;;;8.17;3.87;;;;;;;19.40;50.43;99305.09;262826;1090;24447;-74
2021/08/12 19:06:44;;;;;;;5.40;4.10;;;;;;;19.26;50.65;99327.11;263068;1089;22790;-74
2021/08/12 19:11:48;;;;;;;7.40;3.95;;;;;;;19.13;50.96;99323.55;262841;1088;25877;-74
2021/08/12 19:16:54;;;;;;;10.70;3.50;;;;;;;19.01;50.91;99330.84;262880;1090;22878;-76
2021/08/12 19:21:57;;;;;;;4.85;3.90;;;;;;;18.89;51.37;99329.65;263007;1088;25883;-75
2021/08/12 19:27:00;;;;;;;4.73;3.50;;;;;;;18.77;52.36;99333.03;262743;1089;22861;-75
2021/08/12 19:32:04;;;;;;;4.40;3.50;;;;;;;18.67;52.53;99338.86;262780;1088;26254;-75
2021/08/12 19:37:07;;;;;;;5.47;3.47;;;;;;;18.64;52.85;99348.45;262777;1090;26079;-75
2021/08/12 19:42:11;;;;;;;4.87;4.23;;;;;;;18.55;53.09;99342.29;263079;1088;24346;-74
2021/08/12 19:47:14;;;;;;;7.50;4.50;;;;;;;18.44;53.17;99343.79;262753;1088;22773;-74
2021/08/12 19:52:18;;;;;;;7.10;5.35;;;;;;;18.34;53.96;99342.23;262731;1090;22779;-75
2021/08/12 19:57:22;;;;;;;9.70;5.75;;;;;;;18.26;55.35;99343.86;262782;1090;23520;-75
2021/08/12 20:02:26;;;;;;;11.95;6.45;;;;;;;18.21;56.22;99344.02;262439;1089;26028;-75
2021/08/12 20:07:29;;;;;;;14.60;7.50;;;;;;;18.19;56.88;99345.47;262699;1089;22850;-75
2021/08/12 20:12:33;;;;;;;11.70;8.20;;;;;;;18.13;57.15;99348.38;262961;1090;24371;-74
2021/08/12 20:17:36;;;;;;;10.45;6.75;;;;;;;18.01;58.10;99345.55;263049;1090;27153;-75
2021/08/12 20:22:39;;;;;;;10.50;8.60;;;;;;;17.87;59.59;99345.71;262888;1089;23068;-75
2021/08/12 20:27:42;;;;;;;11.10;9.10;;;;;;;17.75;60.03;99342.87;262794;1089;23358;-75
2021/08/12 20:32:48;;;;;;;13.90;8.40;;;;;;;17.72;60.56;99340.80;263006;1089;22867;-75
2021/08/12 20:37:51;;;;;;;15.15;7.75;;;;;;;17.72;61.23;99329.97;262824;1088;23395;-75
2021/08/12 20:42:56;;;;;;;11.05;8.10;;;;;;;17.75;61.77;99337.45;262903;1090;24369;-75
2021/08/12 20:47:59;;;;;;;10.60;8.15;;;;;;;17.76;61.69;99333.63;263017;1090;22783;-75
2021/08/12 20:53:05;;;;;;;11.15;7.80;;;;;;;17.73;61.71;99342.41;262890;1090;22825;-75
2021/08/12 20:58:08;;;;;;;11.80;7.85;;;;;;;17.69;61.96;99331.41;262464;1090;24508;-75
2021/08/12 21:03:11;;;;;;;12.60;8.05;;;;;;;17.65;62.24;99319.63;262755;1089;23359;-75
2021/08/12 21:08:14;;;;;;;11.70;8.65;;;;;;;17.64;62.58;99320.73;262798;1089;24303;-75
2021/08/12 21:13:20;;;;;;;16.45;9.95;;;;;;;17.59;62.95;99319.00;262740;1088;26250;-74
2021/08/12 21:18:25;;;;;;;12.65;9.15;;;;;;;17.52;63.13;99317.91;262802;1090;22766;-76
2021/08/12 21:23:29;;;;;;;13.87;9.93;;;;;;;17.47;62.83;99321.56;262797;1089;25871;-75
2021/08/12 21:28:38;;;;;;;13.85;9.65;;;;;;;17.39;62.72;99312.34;262714;1088;24460;-75
2021/08/12 21:33:53;;;;;;;12.13;9.28;;;;;;;17.30;62.63;99327.80;262392;1090;22838;-75
2021/08/12 21:38:56;;;;;;;12.10;9.15;;;;;;;17.15;63.18;99326.35;262729;1090;22904;-76
2021/08/12 21:44:12;;;;;;;9.80;7.85;;;;;;;16.98;63.25;99326.36;262701;1089;25992;-75
2021/08/12 21:49:16;;;;;;;15.35;7.95;;;;;;;16.79;63.87;99323.91;262741;1089;22821;-75
2021/08/12 21:54:19;;;;;;;14.30;8.97;;;;;;;16.64;64.48;99323.27;262751;1089;23283;-75
2021/08/12 21:59:22;;;;;;;13.50;8.65;;;;;;;16.55;65.00;99325.95;262796;1090;27019;-76
2021/08/12 22:04:31;;;;;;;11.55;9.30;;;;;;;16.47;65.21;99323.23;262787;1090;22894;-76
2021/08/12 22:09:43;;;;;;;12.95;8.00;;;;;;;16.41;65.48;99334.19;262745;1090;22796;-74
2021/08/12 22:14:48;;;;;;;15.10;9.00;;;;;;;16.33;65.51;99334.16;262753;1089;22843;-74
2021/08/12 22:19:53;;;;;;;11.53;9.20;;;;;;;16.27;65.91;99333.51;262762;1090;24167;-75
2021/08/12 22:24:56;;;;;;;11.90;8.40;;;;;;;16.16;66.10;99332.98;262827;1089;22766;-75
2021/08/12 22:30:00;;;;;;;9.75;7.80;;;;;;;16.10;66.24;99339.61;262749;1089;22795;-75
2021/08/12 22:35:08;;;;;;;12.70;8.90;;;;;;;16.06;66.60;99344.05;262541;1089;23401;-75
2021/08/12 22:40:11;;;;;;;12.05;9.00;;;;;;;15.94;66.70;99344.64;262779;1088;26354;-76
2021/08/12 22:45:15;;;;;;;11.35;8.65;;;;;;;15.89;66.92;99340.17;262800;1088;26034;-75
2021/08/12 22:50:19;;;;;;;12.10;8.65;;;;;;;15.89;67.62;99344.76;262760;1089;25906;-74
2021/08/12 22:55:22;;;;;;;12.90;9.30;;;;;;;15.90;67.76;99346.36;262537;1090;26181;-76
2021/08/12 23:00:38;;;;;;;13.80;9.60;;;;;;;15.86;67.60;99338.06;262696;1089;22847;-75
2021/08/12 23:05:42;;;;;;;10.80;8.43;;;;;;;15.79;67.71;99342.30;262847;1090;25870;-75
2021/08/12 23:10:45;;;;;;;12.65;8.65;;;;;;;15.74;68.05;99345.94;262765;1088;22892;-75
2021/08/12 23:15:49;;;;;;;14.00;8.70;;;;;;;15.66;67.75;99350.16;262767;1088;23427;-75
2021/08/12 23:20:53;;;;;;;11.70;9.35;;;;;;;15.59;67.93;99351.71;262818;1089;22837;-76
2021/08/12 23:26:13;;;;;;;12.98;8.65;;;;;;;15.52;68.07;99352.14;262770;1089;22906;-75
2021/08/12 23:31:17;;;;;;;11.95;9.10;;;;;;;15.49;68.22;99355.45;262830;1089;23141;-76
2021/08/12 23:36:20;;;;;;;15.20;9.20;;;;;;;15.47;68.59;99350.34;262961;1088;22793;-76
2021/08/12 23:41:24;;;;;;;12.27;9.10;;;;;;;15.45;68.42;99336.36;262712;1090;22869;-75
2021/08/12 23:46:27;;;;;;;12.20;7.75;;;;;;;15.43;68.24;99346.69;262816;1089;22776;-75